createdAt,value
2023-08-15T00:00:54.167Z,59.53
2023-08-15T00:03:21.875Z,59.49
2023-08-15T00:05:49.884Z,59.72
2023-08-15T00:08:17.343Z,59.84
2023-08-15T00:10:45.001Z,59.80
2023-08-15T00:13:12.458Z,59.96
2023-08-15T00:15:40.224Z,60.20
2023-08-15T00:18:08.138Z,60.29
2023-08-15T00:20:35.572Z,60.34
2023-08-15T00:23:03.109Z,60.54
2023-08-15T00:25:30.680Z,60.58
2023-08-15T00:27:58.335Z,60.60
2023-08-15T00:30:25.997Z,60.68
2023-08-15T00:32:53.481Z,60.71
2023-08-15T00:35:21.118Z,60.83
2023-08-15T00:37:48.687Z,60.92
2023-08-15T00:40:16.235Z,61.03
2023-08-15T00:42:43.799Z,61.11
2023-08-15T00:45:11.567Z,61.14
2023-08-15T00:47:39.724Z,61.28
2023-08-15T00:50:08.194Z,61.44
2023-08-15T00:52:37.065Z,61.57
2023-08-15T00:55:05.484Z,61.67
2023-08-15T00:57:32.887Z,61.92
2023-08-15T01:00:00.692Z,62.02
2023-08-15T01:02:28.342Z,61.65
2023-08-15T01:04:55.935Z,61.59
2023-08-15T01:07:23.553Z,61.54
2023-08-15T01:09:51.163Z,61.39
2023-08-15T01:12:45.596Z,61.33
2023-08-15T01:15:17.198Z,61.23
2023-08-15T01:17:49.907Z,61.16
2023-08-15T01:20:21.227Z,61.21
2023-08-15T01:22:49.002Z,61.20
2023-08-15T01:25:16.463Z,61.36
2023-08-15T01:27:45.447Z,61.35
2023-08-15T01:30:13.646Z,61.54
2023-08-15T01:32:50.061Z,61.48
2023-08-15T01:35:24.113Z,61.54
2023-08-15T01:38:02.487Z,61.68
2023-08-15T01:40:30.772Z,61.88
2023-08-15T01:42:59.856Z,61.92
2023-08-15T01:45:27.558Z,62.09
2023-08-15T01:47:56.185Z,62.03
2023-08-15T01:50:23.805Z,62.08
2023-08-15T01:52:51.361Z,62.11
2023-08-15T01:55:19.022Z,62.03
2023-08-15T01:57:46.482Z,61.88
2023-08-15T02:00:14.387Z,62.00
2023-08-15T02:02:44.910Z,62.11
2023-08-15T02:05:14.676Z,62.00
2023-08-15T02:07:42.356Z,61.97
2023-08-15T02:10:10.287Z,62.02
2023-08-15T02:12:38.088Z,62.05
2023-08-15T02:15:06.471Z,62.14
2023-08-15T02:17:34.101Z,62.05
2023-08-15T02:20:02.376Z,62.13
2023-08-15T02:22:31.194Z,62.24
2023-08-15T02:24:58.759Z,62.28
2023-08-15T02:27:27.748Z,62.29
2023-08-15T02:29:55.305Z,62.29
2023-08-15T02:32:23.090Z,62.37
2023-08-15T02:34:50.484Z,62.45
2023-08-15T02:37:18.032Z,62.28
2023-08-15T02:39:45.548Z,62.18
2023-08-15T02:42:13.210Z,62.21
2023-08-15T02:44:40.694Z,62.15
2023-08-15T02:47:08.239Z,62.12
2023-08-15T02:49:35.787Z,62.20
2023-08-15T02:52:03.172Z,62.21
2023-08-15T02:54:30.601Z,62.13
2023-08-15T02:56:58.179Z,62.11
2023-08-15T03:19:51.385Z,61.44
2023-08-15T03:22:18.476Z,61.44
2023-08-15T03:26:11.665Z,61.55
2023-08-15T03:28:49.087Z,61.54
2023-08-15T03:31:24.875Z,61.58
2023-08-15T03:33:55.035Z,61.34
2023-08-15T03:36:21.828Z,61.56
2023-08-15T03:38:48.881Z,61.52
2023-08-15T03:41:15.515Z,61.53
2023-08-15T03:43:42.803Z,61.60
2023-08-15T03:46:09.542Z,61.64
2023-08-15T03:48:36.662Z,61.78
2023-08-15T03:51:03.382Z,61.98
2023-08-15T03:53:34.601Z,61.99
2023-08-15T03:56:03.113Z,61.68
2023-08-15T03:58:30.938Z,60.98
2023-08-15T04:00:57.558Z,60.32
2023-08-15T04:03:24.318Z,60.16
2023-08-15T04:05:52.498Z,59.40
2023-08-15T04:08:19.204Z,58.99
2023-08-15T04:10:46.458Z,58.94
2023-08-15T04:13:13.229Z,58.38
2023-08-15T04:15:40.093Z,57.70
2023-08-15T04:18:11.296Z,57.14
2023-08-15T04:20:41.749Z,57.18
2023-08-15T04:23:11.370Z,57.22
2023-08-15T04:25:38.685Z,57.39
2023-08-15T04:28:06.249Z,57.56
2023-08-15T04:30:33.964Z,57.61
2023-08-15T04:33:00.669Z,57.73
2023-08-15T04:35:27.787Z,57.78
2023-08-15T04:37:54.702Z,57.36
2023-08-15T04:40:35.223Z,57.26
2023-08-15T04:43:03.048Z,57.28
2023-08-15T04:45:31.531Z,57.27
2023-08-15T04:47:58.679Z,57.02
2023-08-15T04:50:25.878Z,56.86
2023-08-15T04:52:52.648Z,56.79
2023-08-15T04:55:22.952Z,56.45
2023-08-15T05:03:48.811Z,55.33
2023-08-15T05:06:46.975Z,55.09
2023-08-15T05:09:27.867Z,55.04
2023-08-15T05:12:44.608Z,54.73
2023-08-15T05:15:39.027Z,54.22
2023-08-15T05:18:12.035Z,53.90
2023-08-15T05:20:58.453Z,53.80
2023-08-15T05:24:03.473Z,53.71
2023-08-15T05:35:21.822Z,53.16
2023-08-15T05:41:17.716Z,54.04
2023-08-15T05:44:01.335Z,54.15
2023-08-15T05:46:28.135Z,53.92
2023-08-15T05:48:54.925Z,54.01
2023-08-15T05:51:21.588Z,53.99
2023-08-15T05:53:48.508Z,53.75
2023-08-15T05:56:15.261Z,53.47
2023-08-15T05:58:42.025Z,53.49
2023-08-15T06:01:09.079Z,53.30
2023-08-15T06:03:51.302Z,53.48
2023-08-15T06:06:19.553Z,53.70
2023-08-15T06:08:49.260Z,53.48
2023-08-15T06:11:16.060Z,53.46
2023-08-15T06:13:49.239Z,53.27
2023-08-15T06:16:18.765Z,53.19
2023-08-15T06:18:45.818Z,52.96
2023-08-15T06:21:12.565Z,52.81
2023-08-15T06:23:39.456Z,52.99
2023-08-15T06:26:06.245Z,53.28
2023-08-15T06:28:33.195Z,52.99
2023-08-15T06:30:59.952Z,52.61
2023-08-15T06:33:26.678Z,52.09
2023-08-15T06:35:53.635Z,51.69
2023-08-15T06:38:20.255Z,52.10
2023-08-15T06:40:47.288Z,51.98
2023-08-15T06:43:14.067Z,51.72
2023-08-15T06:45:40.782Z,51.60
2023-08-15T06:48:07.591Z,51.75
2023-08-15T06:50:34.445Z,51.52
2023-08-15T06:53:01.314Z,51.47
2023-08-15T06:55:28.198Z,51.63
2023-08-15T06:57:55.001Z,51.89
2023-08-15T07:00:21.963Z,52.05
2023-08-15T07:02:49.626Z,52.02
2023-08-15T07:05:16.555Z,51.76
2023-08-15T07:07:43.197Z,51.61
2023-08-15T07:10:10.982Z,51.41
2023-08-15T07:13:12.720Z,51.25
2023-08-15T07:15:39.424Z,50.70
2023-08-15T07:18:06.354Z,50.17
2023-08-15T07:20:34.410Z,49.59
2023-08-15T07:23:01.416Z,49.94
2023-08-15T07:25:28.065Z,50.01
2023-08-15T07:27:54.866Z,49.30
2023-08-15T07:30:21.646Z,48.64
2023-08-15T07:32:48.252Z,48.18
2023-08-15T07:35:16.158Z,47.88
2023-08-15T07:37:42.995Z,47.93
2023-08-15T07:40:51.238Z,47.89
2023-08-15T07:43:57.195Z,47.35
2023-08-15T07:46:24.723Z,47.21
2023-08-15T07:48:51.504Z,47.35
2023-08-15T07:51:20.099Z,46.42
2023-08-15T07:53:53.043Z,46.32
2023-08-15T07:56:30.648Z,45.55
2023-08-15T07:59:04.625Z,45.21
2023-08-15T08:01:43.335Z,45.47
2023-08-15T08:05:17.664Z,45.18
2023-08-15T08:08:10.232Z,44.47
2023-08-15T08:10:44.174Z,43.68
2023-08-15T08:13:20.655Z,42.49
2023-08-15T08:15:47.890Z,42.06
2023-08-15T08:18:15.102Z,41.67
2023-08-15T08:20:42.241Z,41.76
2023-08-15T08:23:09.385Z,41.35
2023-08-15T08:25:36.740Z,41.12
2023-08-15T08:28:05.273Z,40.22
2023-08-15T08:30:34.857Z,40.25
2023-08-15T08:33:07.374Z,41.19
2023-08-15T08:35:36.638Z,41.26
2023-08-15T08:38:04.198Z,41.77
2023-08-15T08:40:32.248Z,41.89
2023-08-15T08:42:59.072Z,41.46
2023-08-15T08:45:35.181Z,41.37
2023-08-15T08:48:14.383Z,41.43
2023-08-15T08:50:41.878Z,41.43
2023-08-15T08:53:08.528Z,40.54
2023-08-15T08:56:09.428Z,40.16
2023-08-15T08:58:36.892Z,40.21
2023-08-15T09:01:12.346Z,39.79
2023-08-15T09:03:41.722Z,39.58
2023-08-15T09:06:51.688Z,39.94
2023-08-15T09:09:18.633Z,39.90
2023-08-15T09:11:48.118Z,39.39
2023-08-15T09:14:15.624Z,39.14
2023-08-15T09:19:41.396Z,37.76
2023-08-15T09:22:15.534Z,37.54
2023-08-15T09:24:47.914Z,37.43
2023-08-15T09:27:14.686Z,37.50
2023-08-15T09:29:45.627Z,37.34
2023-08-15T09:32:22.735Z,37.57
2023-08-15T09:34:52.714Z,37.85
2023-08-15T09:37:27.373Z,37.23
2023-08-15T09:40:01.752Z,37.00
2023-08-15T09:42:45.294Z,37.04
2023-08-15T09:45:17.390Z,36.44
2023-08-15T09:47:47.429Z,35.79
2023-08-15T09:50:14.819Z,35.50
2023-08-15T09:52:42.547Z,35.69
2023-08-15T09:55:35.159Z,35.45
2023-08-15T09:58:11.053Z,35.84
2023-08-15T10:00:51.898Z,35.62
2023-08-15T10:03:40.250Z,34.95
2023-08-15T10:07:03.849Z,34.48
2023-08-15T10:09:30.999Z,34.34
2023-08-15T10:12:02.392Z,34.76
2023-08-15T10:14:32.871Z,34.26
2023-08-15T10:17:21.575Z,34.85
2023-08-15T10:19:51.390Z,34.73
2023-08-15T10:22:24.498Z,34.78
2023-08-15T10:24:51.723Z,34.86
2023-08-15T10:27:20.258Z,34.42
2023-08-15T10:30:59.476Z,34.09
2023-08-15T10:34:01.705Z,33.79
2023-08-15T10:36:29.129Z,33.74
2023-08-15T10:38:56.290Z,33.50
2023-08-15T10:41:26.151Z,33.00
2023-08-15T10:43:56.618Z,32.85
2023-08-15T10:49:55.512Z,34.02
2023-08-15T10:52:22.697Z,33.79
2023-08-15T10:54:50.163Z,33.76
2023-08-15T10:57:17.609Z,33.59
2023-08-15T10:59:44.952Z,33.70
2023-08-15T11:02:12.449Z,33.73
2023-08-15T11:04:40.816Z,33.80
2023-08-15T11:07:09.781Z,33.87
2023-08-15T11:09:41.453Z,34.17
2023-08-15T11:12:10.093Z,33.41
2023-08-15T11:14:38.020Z,32.85
2023-08-15T11:17:09.827Z,32.50
2023-08-15T11:19:36.894Z,33.27
2023-08-15T11:22:05.824Z,32.90
2023-08-15T11:24:33.293Z,33.06
2023-08-15T11:27:02.004Z,33.21
2023-08-15T11:29:34.442Z,33.40
2023-08-15T11:32:01.892Z,33.58
2023-08-15T11:34:34.358Z,33.35
2023-08-15T11:37:01.366Z,33.23
2023-08-15T11:39:33.587Z,33.30
2023-08-15T11:42:01.831Z,32.41
2023-08-15T11:44:31.234Z,31.89
2023-08-15T11:47:02.003Z,31.45
2023-08-15T11:49:45.965Z,30.46
2023-08-15T11:52:23.152Z,29.56
2023-08-15T11:54:53.358Z,29.28
2023-08-15T11:57:36.302Z,29.89
2023-08-15T12:00:04.637Z,30.30
2023-08-15T12:02:35.489Z,30.24
2023-08-15T12:05:31.077Z,30.29
2023-08-15T12:07:58.246Z,29.92
2023-08-15T12:10:25.783Z,30.02
2023-08-15T12:12:53.241Z,30.64
2023-08-15T12:15:24.736Z,31.63
2023-08-15T12:17:51.812Z,31.53
2023-08-15T12:20:20.519Z,31.61
2023-08-15T12:22:50.486Z,31.51
2023-08-15T12:25:19.330Z,31.32
2023-08-15T12:27:48.473Z,30.89
2023-08-15T12:30:18.020Z,30.74
2023-08-15T12:32:54.176Z,30.36
2023-08-15T12:37:58.153Z,29.46
2023-08-15T12:40:30.912Z,29.75
2023-08-15T12:43:02.379Z,29.81
2023-08-15T12:45:30.234Z,29.65
2023-08-15T12:47:57.848Z,29.92
2023-08-15T12:50:25.881Z,29.41
2023-08-15T12:52:56.335Z,29.38
2023-08-15T12:55:23.997Z,29.82
2023-08-15T12:57:51.387Z,29.46
2023-08-15T13:00:18.988Z,29.62
2023-08-15T13:02:46.706Z,29.29
2023-08-15T13:05:14.174Z,29.08
2023-08-15T13:07:41.654Z,29.22
2023-08-15T13:10:09.177Z,29.21
2023-08-15T13:12:36.697Z,29.25
2023-08-15T13:15:06.600Z,29.60
2023-08-15T13:17:34.466Z,29.32
2023-08-15T13:20:02.134Z,29.11
2023-08-15T13:22:29.690Z,28.89
2023-08-15T13:24:57.296Z,28.35
2023-08-15T13:27:24.849Z,28.53
2023-08-15T13:29:52.405Z,29.12
2023-08-15T13:32:20.127Z,28.85
2023-08-15T13:34:48.032Z,28.90
2023-08-15T13:37:15.390Z,29.13
2023-08-15T13:39:42.918Z,28.87
2023-08-15T13:42:14.828Z,29.17
2023-08-15T13:44:51.043Z,29.24
2023-08-15T13:47:18.605Z,28.61
2023-08-15T13:49:46.060Z,27.80
2023-08-15T13:52:13.519Z,26.41
2023-08-15T13:54:41.079Z,24.62
2023-08-15T13:57:08.727Z,23.42
2023-08-15T13:59:36.715Z,22.14
2023-08-15T14:02:04.626Z,20.95
2023-08-15T14:04:32.968Z,20.19
2023-08-15T14:07:00.837Z,19.63
2023-08-15T14:09:29.029Z,19.02
2023-08-15T14:11:56.458Z,18.41
2023-08-15T14:14:24.021Z,17.34
2023-08-15T14:16:52.120Z,16.72
2023-08-15T14:19:19.494Z,15.82
2023-08-15T14:21:47.418Z,15.38
2023-08-15T14:24:14.924Z,15.40
2023-08-15T14:26:42.663Z,15.17
2023-08-15T14:29:10.007Z,15.35
2023-08-15T14:31:37.433Z,15.60
2023-08-15T14:34:05.160Z,15.54
2023-08-15T14:36:32.884Z,15.34
2023-08-15T14:39:00.439Z,14.48
2023-08-15T14:41:27.939Z,14.71
2023-08-15T14:43:55.459Z,14.02
2023-08-15T14:46:22.984Z,13.69
2023-08-15T14:48:50.576Z,14.25
2023-08-15T14:51:18.181Z,14.04
2023-08-15T14:53:45.641Z,14.01
2023-08-15T14:56:13.784Z,14.09
2023-08-15T14:58:42.693Z,14.05
2023-08-15T15:01:10.327Z,14.07
2023-08-15T15:03:37.850Z,13.67
2023-08-15T15:06:05.394Z,13.68
2023-08-15T15:08:32.931Z,13.33
2023-08-15T15:11:02.717Z,13.65
2023-08-15T15:13:30.390Z,13.41
2023-08-15T15:15:57.949Z,13.60
2023-08-15T15:18:25.527Z,13.94
2023-08-15T15:34:19.473Z,15.26
2023-08-15T15:36:48.084Z,15.52
2023-08-15T15:39:14.916Z,15.79
2023-08-15T15:41:41.646Z,16.51
2023-08-15T15:44:08.425Z,17.03
2023-08-15T15:46:48.856Z,17.38
2023-08-15T15:49:19.861Z,17.89
2023-08-15T15:51:46.342Z,18.09
2023-08-15T15:54:13.367Z,18.26
2023-08-15T15:56:40.215Z,18.17
2023-08-15T15:59:06.950Z,18.57
2023-08-15T16:01:33.917Z,19.14
2023-08-15T16:04:00.613Z,19.63
2023-08-15T16:06:27.583Z,20.22
2023-08-15T16:08:57.194Z,20.77
2023-08-15T16:11:24.146Z,21.41
2023-08-15T16:13:51.709Z,21.83
2023-08-15T16:16:18.445Z,22.18
2023-08-15T16:18:45.073Z,22.75
2023-08-15T16:21:12.004Z,23.22
2023-08-15T16:23:38.574Z,23.70
2023-08-15T16:26:05.235Z,24.30
2023-08-15T16:28:32.038Z,24.70
2023-08-15T16:30:58.676Z,25.29
2023-08-15T16:33:25.155Z,25.87
2023-08-15T16:35:52.567Z,26.24
2023-08-15T16:38:19.408Z,26.01
2023-08-15T16:40:46.050Z,26.31
2023-08-15T16:43:15.276Z,27.28
2023-08-15T16:45:42.516Z,28.12
2023-08-15T16:48:09.405Z,28.27
2023-08-15T16:50:37.212Z,28.38
2023-08-15T16:53:04.101Z,29.16
2023-08-15T16:55:31.105Z,29.96
2023-08-15T16:57:58.094Z,30.77
2023-08-15T17:00:25.814Z,31.42
2023-08-15T17:02:53.500Z,31.54
2023-08-15T17:05:20.526Z,32.20
2023-08-15T17:07:47.364Z,32.95
2023-08-15T17:10:14.422Z,33.53
2023-08-15T17:12:41.348Z,33.70
2023-08-15T17:15:08.715Z,33.81
2023-08-15T17:17:35.343Z,34.30
2023-08-15T17:20:02.072Z,35.19
2023-08-15T17:22:30.798Z,35.75
2023-08-15T17:24:57.352Z,36.46
2023-08-15T17:27:24.087Z,36.88
2023-08-15T17:29:51.615Z,36.94
2023-08-15T17:32:18.457Z,36.85
2023-08-15T17:34:45.200Z,37.14
2023-08-15T17:37:11.940Z,37.01
2023-08-15T17:39:38.579Z,37.37
2023-08-15T17:42:05.732Z,37.75
2023-08-15T17:44:32.573Z,38.24
2023-08-15T17:46:59.238Z,38.62
2023-08-15T17:49:25.952Z,38.86
2023-08-15T17:51:52.669Z,39.53
2023-08-15T17:54:19.436Z,39.89
2023-08-15T17:56:46.029Z,40.83
2023-08-15T17:59:12.583Z,41.36
2023-08-15T18:01:39.520Z,41.89
2023-08-15T18:04:06.358Z,42.27
2023-08-15T18:06:34.239Z,42.34
2023-08-15T18:09:01.626Z,42.63
2023-08-15T18:11:28.224Z,42.96
2023-08-15T18:13:54.943Z,43.53
2023-08-15T18:16:21.619Z,44.12
2023-08-15T18:18:48.434Z,44.71
2023-08-15T18:21:15.129Z,45.42
2023-08-15T18:23:41.867Z,45.87
2023-08-15T18:26:08.504Z,46.14
2023-08-15T18:28:35.559Z,46.74
2023-08-15T18:31:02.190Z,47.21
2023-08-15T18:33:29.111Z,47.57
2023-08-15T18:35:56.593Z,48.02
2023-08-15T18:38:23.441Z,48.60
2023-08-15T18:40:50.138Z,48.73
2023-08-15T18:43:16.836Z,48.90
2023-08-15T18:45:47.066Z,49.39
2023-08-15T18:48:15.154Z,49.80
2023-08-15T18:50:42.610Z,50.13
2023-08-15T18:53:09.314Z,50.34
2023-08-15T18:55:36.097Z,50.80
2023-08-15T18:58:03.125Z,51.44
2023-08-15T19:00:29.687Z,52.00
2023-08-15T19:02:56.343Z,52.21
2023-08-15T19:05:23.052Z,52.00
2023-08-15T19:07:49.792Z,51.89
2023-08-15T19:10:16.494Z,51.85
2023-08-15T19:12:43.261Z,51.89
2023-08-15T19:15:16.753Z,51.73
2023-08-15T19:17:43.810Z,51.75
2023-08-15T19:20:11.448Z,52.17
2023-08-15T19:22:38.425Z,52.83
2023-08-15T19:25:05.863Z,52.93
2023-08-15T19:27:32.516Z,53.20
2023-08-15T19:29:59.328Z,53.54
2023-08-15T19:32:26.419Z,53.94
2023-08-15T19:34:53.015Z,54.28
2023-08-15T19:37:31.057Z,54.45
2023-08-15T19:40:04.052Z,54.58
2023-08-15T19:42:31.023Z,55.12
2023-08-15T19:44:57.463Z,55.13
2023-08-15T19:47:24.303Z,55.09
2023-08-15T19:49:50.896Z,55.18
2023-08-15T19:52:17.784Z,55.05
2023-08-15T19:54:44.420Z,55.31
2023-08-15T19:57:11.035Z,55.26
2023-08-15T19:59:37.850Z,55.39
2023-08-15T20:02:04.783Z,55.54
2023-08-15T20:04:31.557Z,55.72
2023-08-15T20:06:58.267Z,55.73
2023-08-15T20:09:24.780Z,55.95
2023-08-15T20:11:52.529Z,56.10
2023-08-15T20:14:19.070Z,56.49
2023-08-15T20:16:45.737Z,56.88
2023-08-15T20:19:12.410Z,57.33
2023-08-15T20:21:39.940Z,57.79
2023-08-15T20:24:07.397Z,57.91
2023-08-15T20:26:34.285Z,57.95
2023-08-15T20:29:00.892Z,58.20
2023-08-15T20:31:27.600Z,58.20
2023-08-15T20:33:54.328Z,58.23
2023-08-15T20:36:21.204Z,58.41
2023-08-15T20:38:47.946Z,58.26
2023-08-15T20:41:14.582Z,58.26
2023-08-15T20:43:41.234Z,58.21
2023-08-15T20:46:07.910Z,58.36
2023-08-15T20:48:34.598Z,58.50
2023-08-15T20:51:01.340Z,58.72
2023-08-15T20:53:27.878Z,58.84
2023-08-15T20:55:54.825Z,59.02
2023-08-15T20:58:21.460Z,59.37
2023-08-15T21:00:48.436Z,59.50
2023-08-15T21:03:15.198Z,59.69
2023-08-15T21:05:42.810Z,60.04
2023-08-15T21:08:09.430Z,60.28
2023-08-15T21:10:36.207Z,60.33
2023-08-15T21:13:03.039Z,60.23
2023-08-15T21:15:29.613Z,60.35
2023-08-15T21:17:56.235Z,60.40
2023-08-15T21:20:23.775Z,60.60
2023-08-15T21:22:50.901Z,60.68
2023-08-15T21:25:17.792Z,60.52
2023-08-15T21:27:44.601Z,60.49
2023-08-15T21:30:11.445Z,60.45
2023-08-15T21:32:38.147Z,60.61
2023-08-15T21:35:05.462Z,60.58
2023-08-15T21:37:32.302Z,60.52
2023-08-15T21:39:58.920Z,60.62
2023-08-15T21:42:25.770Z,60.44
2023-08-15T21:44:52.331Z,60.42
2023-08-15T21:47:19.196Z,60.52
2023-08-15T21:49:46.196Z,60.77
2023-08-15T21:52:12.831Z,61.18
2023-08-15T21:54:39.408Z,61.31
2023-08-15T21:57:06.191Z,61.52
2023-08-15T21:59:33.366Z,61.65
2023-08-15T22:02:00.582Z,61.74
2023-08-15T22:04:27.573Z,61.65
2023-08-15T22:06:54.220Z,61.63
2023-08-15T22:09:21.661Z,61.56
2023-08-15T22:11:48.400Z,61.63
2023-08-15T22:14:17.420Z,61.85
2023-08-15T22:16:44.510Z,61.81
2023-08-15T22:19:11.042Z,61.87
2023-08-15T22:21:37.819Z,61.89
2023-08-15T22:24:04.990Z,61.92
2023-08-15T22:26:32.236Z,61.92
2023-08-15T22:28:59.070Z,61.87
2023-08-15T22:31:25.849Z,61.93
2023-08-15T22:33:52.652Z,61.91
2023-08-15T22:36:19.315Z,61.98
2023-08-15T22:38:45.980Z,62.13
2023-08-15T22:41:12.522Z,62.13
2023-08-15T22:43:39.180Z,62.02
2023-08-15T22:46:05.930Z,61.94
2023-08-15T22:48:32.687Z,61.92
2023-08-15T22:50:59.328Z,61.96
2023-08-15T22:53:26.100Z,62.05
2023-08-15T22:56:02.140Z,62.14
2023-08-15T22:58:29.079Z,62.30
2023-08-15T23:00:56.875Z,62.38
2023-08-15T23:03:24.418Z,62.40
2023-08-15T23:05:51.448Z,62.47
2023-08-15T23:08:18.219Z,62.44
2023-08-15T23:10:52.300Z,62.49
2023-08-15T23:13:19.137Z,62.45
2023-08-15T23:15:45.629Z,62.33
2023-08-15T23:18:12.951Z,62.27
2023-08-15T23:20:39.650Z,62.43
2023-08-15T23:23:06.110Z,62.46
2023-08-15T23:25:32.571Z,62.63
2023-08-15T23:27:59.178Z,62.45
2023-08-15T23:30:25.936Z,62.29
2023-08-15T23:32:52.713Z,62.25
2023-08-15T23:35:19.512Z,62.29
2023-08-15T23:37:46.151Z,62.33
2023-08-15T23:40:13.205Z,62.25
2023-08-15T23:42:40.215Z,62.40
2023-08-15T23:45:08.247Z,62.54
2023-08-15T23:47:35.325Z,62.66
2023-08-15T23:50:03.247Z,62.70
2023-08-15T23:52:30.149Z,62.91
2023-08-15T23:54:57.468Z,62.91
2023-08-15T23:57:24.660Z,62.95
2023-08-15T23:59:51.934Z,63.02
